createdAt,value
2023-01-13T00:01:26.328Z,101553.38
2023-01-13T00:03:53.879Z,101558.75
2023-01-13T00:06:25.814Z,101558.75
2023-01-13T00:08:54.037Z,101543.72
2023-01-13T00:11:22.218Z,101532.97
2023-01-13T00:13:49.464Z,101517.84
2023-01-13T00:16:18.220Z,101519.69
2023-01-13T00:18:46.522Z,101508.94
2023-01-13T00:21:15.064Z,101506.25
2023-01-13T00:23:43.458Z,101500.00
2023-01-13T00:26:16.122Z,101491.09
2023-01-13T00:28:43.605Z,101485.72
2023-01-13T00:31:12.540Z,101488.53
2023-01-13T00:33:40.216Z,101480.47
2023-01-13T00:36:09.161Z,101481.47
2023-01-13T00:38:37.797Z,101483.28
2023-01-13T00:41:07.969Z,101481.47
2023-01-13T00:43:36.773Z,101481.47
2023-01-13T00:46:06.096Z,101481.56
2023-01-13T00:48:34.223Z,101483.41
2023-01-13T00:51:06.461Z,101486.94
2023-01-13T00:53:39.438Z,101484.25
2023-01-13T00:56:19.991Z,101494.13
2023-01-13T00:58:52.201Z,101498.66
2023-01-13T01:01:22.370Z,101496.09
2023-01-13T01:03:54.641Z,101497.78
2023-01-13T01:06:24.890Z,101502.31
2023-01-13T01:08:53.896Z,101501.47
2023-01-13T01:11:24.232Z,101513.03
2023-01-13T01:13:52.796Z,101516.72
2023-01-13T01:16:21.788Z,101512.19
2023-01-13T01:18:50.952Z,101508.66
2023-01-13T01:21:19.070Z,101506.81
2023-01-13T01:23:46.413Z,101510.34
2023-01-13T01:26:15.531Z,101507.69
2023-01-13T01:28:43.542Z,101500.59
2023-01-13T01:31:17.904Z,101490.72
2023-01-13T01:33:48.794Z,101489.88
2023-01-13T01:36:19.808Z,101483.53
2023-01-13T01:38:47.687Z,101496.94
2023-01-13T01:41:17.727Z,101486.19
2023-01-13T01:44:08.485Z,101475.47
2023-01-13T01:46:44.307Z,101485.34
2023-01-13T01:49:23.677Z,101487.19
2023-01-13T01:51:57.729Z,101484.50
2023-01-13T01:54:38.876Z,101483.63
2023-01-13T01:57:11.399Z,101480.94
2023-01-13T01:59:39.456Z,101473.84
2023-01-13T02:02:08.199Z,101475.69
2023-01-13T02:04:40.653Z,101473.00
2023-01-13T02:07:08.223Z,101465.94
2023-01-13T02:09:36.796Z,101454.34
2023-01-13T02:12:22.963Z,101453.38
2023-01-13T02:14:50.245Z,101455.19
2023-01-13T02:17:32.384Z,101445.31
2023-01-13T02:20:34.015Z,101450.69
2023-01-13T02:23:48.932Z,101435.56
2023-01-13T02:26:16.105Z,101439.94
2023-01-13T02:29:37.059Z,101431.03
2023-01-13T02:32:20.461Z,101430.19
2023-01-13T02:34:55.132Z,101430.19
2023-01-13T02:37:29.499Z,101428.34
2023-01-13T02:40:01.593Z,101419.47
2023-01-13T02:42:57.187Z,101414.94
2023-01-13T02:45:28.347Z,101413.97
2023-01-13T02:47:58.550Z,101408.59
2023-01-13T02:50:32.530Z,101389.94
2023-01-13T02:53:05.955Z,101385.41
2023-01-13T02:55:46.909Z,101393.47
2023-01-13T02:58:20.065Z,101392.63
2023-01-13T03:00:49.178Z,101381.03
2023-01-13T03:03:16.609Z,101369.31
2023-01-13T03:05:46.429Z,101381.03
2023-01-13T03:08:21.535Z,101371.16
2023-01-13T03:10:54.274Z,101376.59
2023-01-13T03:13:27.532Z,101369.41
2023-01-13T03:16:08.405Z,101371.25
2023-01-13T03:18:45.517Z,101367.72
2023-01-13T03:21:34.428Z,101370.41
2023-01-13T03:24:02.290Z,101360.50
2023-01-13T03:26:55.248Z,101360.50
2023-01-13T03:29:36.261Z,101355.13
2023-01-13T03:32:15.319Z,101350.75
2023-01-13T03:34:50.347Z,101348.91
2023-01-13T03:37:22.335Z,101349.78
2023-01-13T03:39:57.472Z,101344.53
2023-01-13T03:42:28.651Z,101347.22
2023-01-13T03:45:10.144Z,101353.56
2023-01-13T03:47:55.754Z,101358.94
2023-01-13T03:50:28.461Z,101359.78
2023-01-13T03:53:01.187Z,101364.31
2023-01-13T03:55:36.574Z,101361.63
2023-01-13T03:58:14.456Z,101370.53
2023-01-13T04:00:55.163Z,101381.25
2023-01-13T04:03:42.438Z,101374.19
2023-01-13T04:06:16.998Z,101366.13
2023-01-13T04:08:52.845Z,101367.94
2023-01-13T04:11:30.811Z,101368.81
2023-01-13T04:14:00.111Z,101362.56
2023-01-13T04:16:27.622Z,101368.81
2023-01-13T04:18:55.156Z,101375.13
2023-01-13T04:21:22.619Z,101374.19
2023-01-13T04:23:51.526Z,101368.81
2023-01-13T04:26:19.769Z,101362.69
2023-01-13T04:28:47.101Z,101368.81
2023-01-13T04:31:14.745Z,101366.22
2023-01-13T04:33:42.108Z,101366.22
2023-01-13T04:36:09.523Z,101366.22
2023-01-13T04:38:36.857Z,101372.44
2023-01-13T04:41:04.262Z,101379.78
2023-01-13T04:43:31.539Z,101387.69
2023-01-13T04:45:58.814Z,101394.91
2023-01-13T04:48:26.047Z,101395.75
2023-01-13T04:50:53.339Z,101394.91
2023-01-13T04:53:20.618Z,101393.19
2023-01-13T04:55:49.772Z,101398.44
2023-01-13T04:58:17.068Z,101401.25
2023-01-13T05:00:44.395Z,101404.91
2023-01-13T05:03:11.687Z,101419.19
2023-01-13T05:05:38.999Z,101421.88
2023-01-13T05:08:06.411Z,101420.03
2023-01-13T05:10:33.591Z,101413.81
2023-01-13T05:13:19.637Z,101421.00
2023-01-13T05:16:06.814Z,101427.31
2023-01-13T05:18:34.446Z,101437.22
2023-01-13T05:21:01.746Z,101441.59
2023-01-13T05:23:47.860Z,101424.63
2023-01-13T05:26:15.091Z,101428.19
2023-01-13T05:28:42.277Z,101420.13
2023-01-13T05:31:09.610Z,101426.47
2023-01-13T05:33:36.944Z,101420.25
2023-01-13T05:36:05.792Z,101422.94
2023-01-13T05:38:33.110Z,101424.78
2023-01-13T05:41:19.166Z,101430.00
2023-01-13T05:43:46.618Z,101432.81
2023-01-13T05:46:14.969Z,101432.69
2023-01-13T05:48:42.991Z,101441.72
2023-01-13T05:51:11.801Z,101442.69
2023-01-13T05:53:40.987Z,101444.41
2023-01-13T05:56:09.349Z,101437.34
2023-01-13T05:58:37.129Z,101440.03
2023-01-13T06:01:07.231Z,101442.69
2023-01-13T06:03:35.128Z,101443.56
2023-01-13T06:06:04.171Z,101448.06
2023-01-13T06:08:32.375Z,101445.38
2023-01-13T06:10:59.643Z,101442.69
2023-01-13T06:13:27.062Z,101433.78
2023-01-13T06:15:59.311Z,101433.78
2023-01-13T06:18:28.059Z,101432.94
2023-01-13T06:20:55.751Z,101435.63
2023-01-13T06:23:23.406Z,101446.38
2023-01-13T06:26:04.403Z,101445.47
2023-01-13T06:28:33.331Z,101461.56
2023-01-13T06:31:05.998Z,101445.47
2023-01-13T06:33:43.955Z,101451.72
2023-01-13T06:36:18.809Z,101457.09
2023-01-13T06:38:49.122Z,101465.16
2023-01-13T06:41:17.301Z,101450.84
2023-01-13T06:43:44.589Z,101451.72
2023-01-13T06:46:11.897Z,101453.53
2023-01-13T06:48:39.159Z,101451.72
2023-01-13T06:51:06.481Z,101475.00
2023-01-13T06:53:34.738Z,101465.16
2023-01-13T06:56:01.996Z,101461.56
2023-01-13T06:58:29.321Z,101457.19
2023-01-13T07:01:00.284Z,101452.69
2023-01-13T07:03:27.681Z,101452.69
2023-01-13T07:05:56.196Z,101450.00
2023-01-13T07:08:24.017Z,101450.00
2023-01-13T07:10:51.590Z,101443.78
2023-01-13T07:13:37.238Z,101444.63
2023-01-13T07:16:06.689Z,101447.31
2023-01-13T07:18:35.640Z,101453.66
2023-01-13T07:21:08.216Z,101453.66
2023-01-13T07:23:39.544Z,101452.81
2023-01-13T07:26:08.846Z,101458.16
2023-01-13T07:28:36.745Z,101453.66
2023-01-13T07:31:04.499Z,101465.25
2023-01-13T07:33:34.600Z,101457.31
2023-01-13T07:36:05.076Z,101449.25
2023-01-13T07:38:34.047Z,101435.00
2023-01-13T07:41:22.165Z,101443.91
2023-01-13T07:43:50.599Z,101451.94
2023-01-13T07:46:18.972Z,101435.84
2023-01-13T07:48:47.231Z,101435.84
2023-01-13T07:51:14.563Z,101425.13
2023-01-13T07:53:41.866Z,101441.22
2023-01-13T07:56:09.424Z,101454.63
2023-01-13T07:58:37.818Z,101457.31
2023-01-13T08:01:13.058Z,101452.94
2023-01-13T08:03:41.096Z,101460.97
2023-01-13T08:06:09.825Z,101461.84
2023-01-13T08:08:38.025Z,101465.47
2023-01-13T08:11:07.687Z,101451.19
2023-01-13T08:13:34.947Z,101452.03
2023-01-13T08:16:05.207Z,101455.63
2023-01-13T08:18:33.812Z,101449.38
2023-01-13T08:21:03.533Z,101442.19
2023-01-13T08:23:30.943Z,101452.03
2023-01-13T08:26:03.197Z,101445.81
2023-01-13T08:28:31.273Z,101441.31
2023-01-13T08:31:07.749Z,101438.63
2023-01-13T08:33:35.551Z,101454.63
2023-01-13T08:36:07.644Z,101449.50
2023-01-13T08:38:35.936Z,101446.94
2023-01-13T08:41:36.833Z,101460.44
2023-01-13T08:44:05.263Z,101453.50
2023-01-13T08:46:32.653Z,101450.91
2023-01-13T08:48:59.975Z,101453.72
2023-01-13T08:51:27.649Z,101457.47
2023-01-13T08:53:54.911Z,101463.19
2023-01-13T08:56:23.381Z,101464.16
2023-01-13T08:58:50.617Z,101453.53
2023-01-13T09:01:21.866Z,101459.66
2023-01-13T09:03:49.241Z,101453.31
2023-01-13T09:06:17.139Z,101456.63
2023-01-13T09:08:45.122Z,101461.00
2023-01-13T09:11:38.096Z,101456.50
2023-01-13T09:14:05.537Z,101463.59
2023-01-13T09:16:32.883Z,101466.16
2023-01-13T09:19:00.111Z,101453.59
2023-01-13T09:21:27.405Z,101460.66
2023-01-13T09:23:54.673Z,101450.69
2023-01-13T09:26:21.927Z,101444.34
2023-01-13T09:28:49.332Z,101452.28
2023-01-13T09:31:16.751Z,101465.72
2023-01-13T09:34:02.422Z,101463.03
2023-01-13T09:36:29.780Z,101451.31
2023-01-13T09:38:57.151Z,101452.16
2023-01-13T09:41:45.953Z,101444.97
2023-01-13T09:44:59.563Z,101438.63
2023-01-13T09:47:34.046Z,101428.88
2023-01-13T09:50:21.965Z,101419.13
2023-01-13T09:52:49.539Z,101427.03
2023-01-13T09:55:22.845Z,101421.69
2023-01-13T09:57:50.351Z,101419.00
2023-01-13T10:00:37.978Z,101427.03
2023-01-13T10:03:23.784Z,101423.50
2023-01-13T10:05:56.600Z,101434.16
2023-01-13T10:08:28.317Z,101435.94
2023-01-13T10:10:59.490Z,101434.16
2023-01-13T10:13:30.713Z,101427.03
2023-01-13T10:16:19.480Z,101426.19
2023-01-13T10:18:58.988Z,101427.91
2023-01-13T10:21:32.164Z,101423.41
2023-01-13T10:24:04.266Z,101417.16
2023-01-13T10:26:56.044Z,101415.38
2023-01-13T10:29:28.737Z,101419.84
2023-01-13T10:31:57.758Z,101418.06
2023-01-13T10:34:26.179Z,101419.84
2023-01-13T10:37:03.100Z,101412.69
2023-01-13T10:39:40.890Z,101410.09
2023-01-13T10:42:17.378Z,101409.13
2023-01-13T10:45:19.243Z,101398.38
2023-01-13T10:48:06.351Z,101401.06
2023-01-13T10:50:36.284Z,101389.47
2023-01-13T10:53:18.478Z,101390.34
2023-01-13T10:55:59.882Z,101389.47
2023-01-13T10:58:28.226Z,101384.13
2023-01-13T11:01:01.127Z,101387.78
2023-01-13T11:03:41.551Z,101394.00
2023-01-13T11:06:19.105Z,101388.53
2023-01-13T11:08:49.672Z,101379.59
2023-01-13T11:11:47.470Z,101376.81
2023-01-13T11:14:33.141Z,101367.91
2023-01-13T11:17:05.700Z,101353.66
2023-01-13T11:19:37.894Z,101347.31
2023-01-13T11:22:37.566Z,101343.78
2023-01-13T11:25:10.520Z,101329.50
2023-01-13T11:27:58.840Z,101326.81
2023-01-13T11:30:50.892Z,101323.25
2023-01-13T11:34:03.578Z,101325.94
2023-01-13T11:36:53.998Z,101327.69
2023-01-13T11:39:49.045Z,101331.31
2023-01-13T11:42:32.030Z,101330.44
2023-01-13T11:45:17.382Z,101329.59
2023-01-13T11:47:52.608Z,101330.69
2023-01-13T11:50:34.238Z,101323.00
2023-01-13T11:53:22.790Z,101317.63
2023-01-13T11:55:58.939Z,101322.03
2023-01-13T11:58:59.129Z,101311.31
2023-01-13T12:01:54.926Z,101312.16
2023-01-13T12:04:33.374Z,101312.03
2023-01-13T12:07:16.443Z,101325.44
2023-01-13T12:10:04.505Z,101327.16
2023-01-13T12:12:37.176Z,101311.19
2023-01-13T12:15:22.500Z,101305.81
2023-01-13T12:18:14.728Z,101309.34
2023-01-13T12:21:04.184Z,101312.03
2023-01-13T12:24:13.789Z,101304.13
2023-01-13T12:26:46.376Z,101315.69
2023-01-13T12:29:19.708Z,101303.25
2023-01-13T12:31:49.290Z,101306.78
2023-01-13T12:34:42.231Z,101304.97
2023-01-13T12:37:21.029Z,101314.84
2023-01-13T12:39:54.154Z,101315.69
2023-01-13T12:42:46.297Z,101309.34
2023-01-13T12:45:13.404Z,101303.97
2023-01-13T12:47:48.361Z,101298.50
2023-01-13T12:50:24.878Z,101286.81
2023-01-13T12:53:19.436Z,101292.16
2023-01-13T12:55:52.119Z,101292.16
2023-01-13T12:58:28.176Z,101296.56
2023-01-13T13:01:13.095Z,101291.19
2023-01-13T13:03:41.547Z,101292.88
2023-01-13T13:06:21.934Z,101280.47
2023-01-13T13:09:04.500Z,101284.84
2023-01-13T13:11:57.937Z,101282.16
2023-01-13T13:14:37.370Z,101298.25
2023-01-13T13:17:25.520Z,101292.03
2023-01-13T13:19:52.847Z,101275.94
2023-01-13T13:22:29.824Z,101269.72
2023-01-13T13:24:59.667Z,101267.91
2023-01-13T13:27:45.456Z,101257.28
2023-01-13T13:30:36.428Z,101261.81
2023-01-13T13:33:39.232Z,101262.66
2023-01-13T13:36:30.215Z,101255.56
2023-01-13T13:39:22.017Z,101256.44
2023-01-13T13:42:12.595Z,101251.06
2023-01-13T13:45:01.441Z,101248.50
2023-01-13T13:47:36.564Z,101248.41
2023-01-13T13:50:20.794Z,101254.72
2023-01-13T13:53:09.305Z,101265.44
2023-01-13T13:55:36.768Z,101255.56
2023-01-13T13:58:04.210Z,101269.84
2023-01-13T14:00:35.528Z,101255.47
2023-01-13T14:03:28.918Z,101258.16
2023-01-13T14:06:00.840Z,101255.34
2023-01-13T14:08:30.847Z,101253.50
2023-01-13T14:10:58.171Z,101256.19
2023-01-13T14:13:30.744Z,101242.75
2023-01-13T14:16:00.871Z,101246.34
2023-01-13T14:18:30.782Z,101236.56
2023-01-13T14:21:13.923Z,101235.69
2023-01-13T14:23:52.080Z,101235.59
2023-01-13T14:26:27.693Z,101232.03
2023-01-13T14:28:56.434Z,101229.34
2023-01-13T14:31:24.704Z,101228.50
2023-01-13T14:33:54.963Z,101244.59
2023-01-13T14:36:36.714Z,101251.78
2023-01-13T14:39:03.997Z,101247.41
2023-01-13T14:41:47.014Z,101235.81
2023-01-13T14:44:28.110Z,101235.94
2023-01-13T14:46:59.065Z,101250.19
2023-01-13T14:49:31.891Z,101252.88
2023-01-13T14:52:09.820Z,101267.19
2023-01-13T14:54:52.080Z,101266.19
2023-01-13T14:57:31.938Z,101266.19
2023-01-13T15:00:13.493Z,101278.63
2023-01-13T15:02:59.065Z,101283.16
2023-01-13T15:05:26.384Z,101294.72
2023-01-13T15:08:00.059Z,101291.19
2023-01-13T15:10:38.938Z,101303.63
2023-01-13T15:13:07.860Z,101306.22
2023-01-13T15:15:37.843Z,101295.47
2023-01-13T15:18:13.946Z,101291.81
2023-01-13T15:20:42.289Z,101295.34
2023-01-13T15:23:10.050Z,101293.50
2023-01-13T15:25:43.009Z,101300.72
2023-01-13T15:28:18.997Z,101288.16
2023-01-13T15:30:47.328Z,101297.19
2023-01-13T15:33:15.779Z,101304.25
2023-01-13T15:35:46.927Z,101306.94
2023-01-13T15:38:23.762Z,101317.66
2023-01-13T15:40:52.713Z,101310.47
2023-01-13T15:43:40.675Z,101306.94
2023-01-13T15:46:38.989Z,101310.47
2023-01-13T15:49:15.034Z,101307.69
2023-01-13T15:51:44.215Z,101299.63
2023-01-13T15:54:12.057Z,101297.81
2023-01-13T15:56:39.606Z,101302.31
2023-01-13T15:59:15.947Z,101308.63
2023-01-13T16:01:43.966Z,101311.31
2023-01-13T16:04:11.201Z,101314.88
2023-01-13T16:06:38.526Z,101315.84
2023-01-13T16:09:06.255Z,101314.13
2023-01-13T16:11:33.496Z,101310.59
2023-01-13T16:14:00.804Z,101313.28
2023-01-13T16:16:28.827Z,101309.84
2023-01-13T16:18:56.509Z,101316.94
2023-01-13T16:21:24.587Z,101311.69
2023-01-13T16:23:52.291Z,101302.78
2023-01-13T16:26:25.774Z,101315.22
2023-01-13T16:28:56.124Z,101315.22
2023-01-13T16:31:32.014Z,101307.28
2023-01-13T16:34:01.387Z,101309.00
2023-01-13T16:36:30.386Z,101300.94
2023-01-13T16:38:57.702Z,101304.47
2023-01-13T16:41:25.261Z,101309.84
2023-01-13T16:43:53.393Z,101317.03
2023-01-13T16:46:26.282Z,101316.94
2023-01-13T16:48:57.168Z,101311.69
2023-01-13T16:51:24.781Z,101316.94
2023-01-13T16:53:52.138Z,101317.88
2023-01-13T16:56:28.271Z,101321.56
2023-01-13T16:58:57.758Z,101325.94
2023-01-13T17:01:30.826Z,101321.56
2023-01-13T17:03:58.856Z,101319.72
2023-01-13T17:06:35.556Z,101326.06
2023-01-13T17:09:17.360Z,101338.63
2023-01-13T17:11:45.026Z,101344.84
2023-01-13T17:14:19.315Z,101361.78
2023-01-13T17:16:47.828Z,101364.63
2023-01-13T17:19:15.501Z,101347.66
2023-01-13T17:21:42.845Z,101343.16
2023-01-13T17:24:12.283Z,101353.03
2023-01-13T17:26:47.524Z,101352.16
2023-01-13T17:29:21.863Z,101353.97
2023-01-13T17:31:50.479Z,101369.13
2023-01-13T17:34:18.709Z,101370.06
2023-01-13T17:36:46.139Z,101371.91
2023-01-13T17:39:16.612Z,101377.28
2023-01-13T17:41:44.667Z,101368.25
2023-01-13T17:44:17.144Z,101360.31
2023-01-13T17:46:45.390Z,101361.16
2023-01-13T17:49:13.761Z,101363.84
2023-01-13T17:51:41.176Z,101364.84
2023-01-13T17:54:12.363Z,101358.63
2023-01-13T17:56:43.203Z,101368.50
2023-01-13T17:59:15.264Z,101368.50
2023-01-13T18:01:42.797Z,101364.84
2023-01-13T18:04:16.553Z,101371.06
2023-01-13T18:06:44.414Z,101363.13
2023-01-13T18:09:12.436Z,101366.66
2023-01-13T18:11:39.793Z,101371.19
2023-01-13T18:14:07.165Z,101373.88
2023-01-13T18:16:34.856Z,101368.50
2023-01-13T18:19:20.935Z,101362.28
2023-01-13T18:22:06.923Z,101376.41
2023-01-13T18:24:53.023Z,101366.66
2023-01-13T18:27:27.348Z,101369.44
2023-01-13T18:29:58.325Z,101380.09
2023-01-13T18:32:31.921Z,101382.84
2023-01-13T18:35:06.114Z,101390.81
2023-01-13T18:37:38.832Z,101401.63
2023-01-13T18:40:09.308Z,101411.41
2023-01-13T18:42:53.736Z,101424.84
2023-01-13T18:45:27.145Z,101432.88
2023-01-13T18:47:58.769Z,101430.19
2023-01-13T18:50:27.135Z,101433.75
2023-01-13T18:52:54.570Z,101423.84
2023-01-13T18:55:22.128Z,101432.88
2023-01-13T18:57:54.277Z,101435.56
2023-01-13T19:00:23.036Z,101435.56
2023-01-13T19:05:34.948Z,101430.19
2023-01-13T19:08:02.537Z,101444.56
2023-01-13T19:10:32.345Z,101433.84
2023-01-13T19:13:01.391Z,101440.19
2023-01-13T19:15:28.781Z,101440.19
2023-01-13T19:17:56.231Z,101446.53
2023-01-13T19:20:23.514Z,101448.22
2023-01-13T19:22:54.289Z,101444.69
2023-01-13T19:25:21.884Z,101445.53
2023-01-13T19:27:49.239Z,101442.97
2023-01-13T19:30:17.533Z,101452.63
2023-01-13T19:32:44.826Z,101447.38
2023-01-13T19:35:14.101Z,101458.94
2023-01-13T19:37:43.683Z,101459.94
2023-01-13T19:40:13.880Z,101454.56
2023-01-13T19:43:01.935Z,101459.94
2023-01-13T19:45:32.046Z,101460.78
2023-01-13T19:48:05.061Z,101465.31
2023-01-13T19:50:36.561Z,101459.94
2023-01-13T19:53:04.108Z,101462.63
2023-01-13T19:55:32.105Z,101464.44
2023-01-13T19:57:59.439Z,101465.44
2023-01-13T20:00:27.004Z,101469.81
2023-01-13T20:02:56.687Z,101472.50
2023-01-13T20:05:26.023Z,101473.34
2023-01-13T20:07:53.969Z,101475.06
2023-01-13T20:10:23.200Z,101484.94
2023-01-13T20:12:50.502Z,101485.78
2023-01-13T20:15:17.807Z,101476.75
2023-01-13T20:17:45.120Z,101478.59
2023-01-13T20:20:13.657Z,101471.28
2023-01-13T20:22:41.483Z,101473.84
2023-01-13T20:25:09.423Z,101471.16
2023-01-13T20:27:37.037Z,101475.69
2023-01-13T20:30:09.539Z,101480.94
2023-01-13T20:32:37.198Z,101481.81
2023-01-13T20:35:05.481Z,101485.22
2023-01-13T20:37:33.645Z,101485.34
2023-01-13T20:40:01.841Z,101488.03
2023-01-13T20:42:34.251Z,101488.97
2023-01-13T20:45:01.721Z,101492.53
2023-01-13T20:47:30.179Z,101495.31
2023-01-13T20:49:57.621Z,101483.84
2023-01-13T20:52:25.112Z,101489.09
2023-01-13T20:54:52.356Z,101487.41
2023-01-13T20:57:19.741Z,101490.06
2023-01-13T20:59:47.164Z,101491.91
2023-01-13T21:02:16.155Z,101493.63
2023-01-13T21:04:44.063Z,101493.63
2023-01-13T21:07:11.463Z,101499.84
2023-01-13T21:09:38.686Z,101507.75
2023-01-13T21:12:25.226Z,101493.63
2023-01-13T21:15:10.827Z,101491.91
2023-01-13T21:17:57.258Z,101494.34
2023-01-13T21:20:24.564Z,101483.72
2023-01-13T21:22:51.902Z,101495.44
2023-01-13T21:25:19.986Z,101490.81
2023-01-13T21:27:48.101Z,101497.03
2023-01-13T21:30:17.271Z,101497.91
2023-01-13T21:32:45.648Z,101498.00
2023-01-13T21:35:14.249Z,101501.53
2023-01-13T21:37:44.248Z,101488.88
2023-01-13T21:40:13.766Z,101490.72
2023-01-13T21:42:59.670Z,101503.16
2023-01-13T21:45:45.961Z,101504.97
2023-01-13T21:48:13.233Z,101504.00
2023-01-13T21:50:40.945Z,101495.09
2023-01-13T21:53:08.373Z,101500.47
2023-01-13T21:55:36.915Z,101504.97
2023-01-13T21:58:13.417Z,101501.31
2023-01-13T22:00:42.640Z,101507.66
2023-01-13T22:03:12.122Z,101500.47
2023-01-13T22:05:40.142Z,101513.03
2023-01-13T22:08:07.548Z,101516.56
2023-01-13T22:10:35.219Z,101516.56
2023-01-13T22:13:23.584Z,101520.09
2023-01-13T22:15:51.002Z,101518.28
2023-01-13T22:18:18.479Z,101519.13
2023-01-13T22:20:46.031Z,101518.19
2023-01-13T22:23:13.685Z,101517.31
2023-01-13T22:25:40.959Z,101523.53
2023-01-13T22:28:09.428Z,101512.81
2023-01-13T22:30:36.910Z,101517.19
2023-01-13T22:33:04.130Z,101509.16
2023-01-13T22:35:31.403Z,101506.47
2023-01-13T22:38:00.914Z,101508.19
2023-01-13T22:40:28.186Z,101501.81
2023-01-13T22:42:55.469Z,101508.09
2023-01-13T22:45:22.852Z,101514.38
2023-01-13T22:47:50.159Z,101509.78
2023-01-13T22:50:20.757Z,101513.31
2023-01-13T22:52:48.152Z,101515.16
2023-01-13T22:55:15.568Z,101521.38
2023-01-13T22:57:47.971Z,101531.25
2023-01-13T23:00:19.065Z,101535.75
2023-01-13T23:02:46.912Z,101532.22
2023-01-13T23:05:14.291Z,101539.41
2023-01-13T23:07:41.585Z,101538.53
2023-01-13T23:10:09.480Z,101531.34
2023-01-13T23:12:37.015Z,101539.31
2023-01-13T23:15:05.314Z,101532.97
2023-01-13T23:17:32.722Z,101537.34
2023-01-13T23:19:59.953Z,101532.97
2023-01-13T23:22:27.359Z,101529.28
2023-01-13T23:24:54.661Z,101519.53
2023-01-13T23:27:21.932Z,101522.22
2023-01-13T23:29:49.427Z,101516.97
2023-01-13T23:32:16.651Z,101522.34
2023-01-13T23:34:43.855Z,101518.69
2023-01-13T23:37:11.101Z,101511.50
2023-01-13T23:39:38.349Z,101512.47
2023-01-13T23:42:05.643Z,101524.91
2023-01-13T23:44:32.943Z,101518.81
2023-01-13T23:47:00.253Z,101527.59
2023-01-13T23:49:27.557Z,101533.94
2023-01-13T23:51:55.023Z,101533.81
2023-01-13T23:54:22.472Z,101532.84
2023-01-13T23:56:52.497Z,101532.84
2023-01-13T23:59:20.917Z,101534.66
